sensor_id;sensor_type;location;lat;lon;timestamp;temperature;humidity
72202;SHT30;60105;54.956;73.412;2022-08-19T00:01:49;10.71;68.65
72202;SHT30;60105;54.956;73.412;2022-08-19T00:04:18;10.67;69.24
72202;SHT30;60105;54.956;73.412;2022-08-19T00:06:45;10.68;69.07
72202;SHT30;60105;54.956;73.412;2022-08-19T00:09:30;10.71;68.99
72202;SHT30;60105;54.956;73.412;2022-08-19T00:12:00;10.64;69.71
72202;SHT30;60105;54.956;73.412;2022-08-19T00:14:28;10.67;69.08
72202;SHT30;60105;54.956;73.412;2022-08-19T00:16:57;10.67;69.33
72202;SHT30;60105;54.956;73.412;2022-08-19T00:19:23;10.69;69.13
72202;SHT30;60105;54.956;73.412;2022-08-19T00:21:50;10.73;69.15
72202;SHT30;60105;54.956;73.412;2022-08-19T00:24:16;10.71;69.59
72202;SHT30;60105;54.956;73.412;2022-08-19T00:26:43;10.69;70.10
72202;SHT30;60105;54.956;73.412;2022-08-19T00:29:12;10.65;69.74
72202;SHT30;60105;54.956;73.412;2022-08-19T00:31:39;10.67;69.82
72202;SHT30;60105;54.956;73.412;2022-08-19T00:34:05;10.67;69.75
72202;SHT30;60105;54.956;73.412;2022-08-19T00:36:31;10.67;69.83
72202;SHT30;60105;54.956;73.412;2022-08-19T00:39:09;10.61;69.84
72202;SHT30;60105;54.956;73.412;2022-08-19T00:41:36;10.67;69.51
72202;SHT30;60105;54.956;73.412;2022-08-19T00:44:13;10.68;69.82
72202;SHT30;60105;54.956;73.412;2022-08-19T00:46:58;10.73;69.67
72202;SHT30;60105;54.956;73.412;2022-08-19T00:49:35;10.72;69.78
72202;SHT30;60105;54.956;73.412;2022-08-19T00:52:18;10.76;69.57
72202;SHT30;60105;54.956;73.412;2022-08-19T00:54:46;10.73;69.57
72202;SHT30;60105;54.956;73.412;2022-08-19T00:57:17;10.73;69.26
72202;SHT30;60105;54.956;73.412;2022-08-19T00:59:46;10.76;69.12
72202;SHT30;60105;54.956;73.412;2022-08-19T01:02:15;10.78;69.10
72202;SHT30;60105;54.956;73.412;2022-08-19T01:04:41;10.82;68.20
72202;SHT30;60105;54.956;73.412;2022-08-19T01:07:07;10.79;68.60
72202;SHT30;60105;54.956;73.412;2022-08-19T01:09:33;10.85;68.73
72202;SHT30;60105;54.956;73.412;2022-08-19T01:12:00;10.86;69.06
72202;SHT30;60105;54.956;73.412;2022-08-19T01:14:26;10.89;69.15
72202;SHT30;60105;54.956;73.412;2022-08-19T01:16:53;10.95;69.23
72202;SHT30;60105;54.956;73.412;2022-08-19T01:19:28;10.89;69.44
72202;SHT30;60105;54.956;73.412;2022-08-19T01:22:00;10.92;69.51
72202;SHT30;60105;54.956;73.412;2022-08-19T01:24:28;10.92;69.59
72202;SHT30;60105;54.956;73.412;2022-08-19T01:26:54;10.92;69.45
72202;SHT30;60105;54.956;73.412;2022-08-19T01:29:20;10.98;69.36
72202;SHT30;60105;54.956;73.412;2022-08-19T01:31:46;10.92;69.54
72202;SHT30;60105;54.956;73.412;2022-08-19T01:34:13;10.89;69.99
72202;SHT30;60105;54.956;73.412;2022-08-19T01:36:42;10.86;70.01
72202;SHT30;60105;54.956;73.412;2022-08-19T01:39:15;10.96;69.49
72202;SHT30;60105;54.956;73.412;2022-08-19T01:41:43;10.98;69.29
72202;SHT30;60105;54.956;73.412;2022-08-19T01:44:09;10.96;69.54
72202;SHT30;60105;54.956;73.412;2022-08-19T01:46:36;11.06;69.25
72202;SHT30;60105;54.956;73.412;2022-08-19T01:49:05;11.15;68.97
72202;SHT30;60105;54.956;73.412;2022-08-19T01:51:32;11.20;69.24
72202;SHT30;60105;54.956;73.412;2022-08-19T01:53:58;11.20;68.78
72202;SHT30;60105;54.956;73.412;2022-08-19T01:56:29;11.29;68.62
72202;SHT30;60105;54.956;73.412;2022-08-19T01:59:02;11.31;68.39
72202;SHT30;60105;54.956;73.412;2022-08-19T02:01:29;11.31;68.40
72202;SHT30;60105;54.956;73.412;2022-08-19T02:04:07;11.23;68.23
72202;SHT30;60105;54.956;73.412;2022-08-19T02:06:34;11.27;68.40
72202;SHT30;60105;54.956;73.412;2022-08-19T02:09:00;11.30;68.35
72202;SHT30;60105;54.956;73.412;2022-08-19T02:11:30;11.36;68.04
72202;SHT30;60105;54.956;73.412;2022-08-19T02:14:01;11.33;68.14
72202;SHT30;60105;54.956;73.412;2022-08-19T02:16:28;11.40;67.95
72202;SHT30;60105;54.956;73.412;2022-08-19T02:18:56;11.41;67.82
72202;SHT30;60105;54.956;73.412;2022-08-19T02:21:23;11.40;68.06
72202;SHT30;60105;54.956;73.412;2022-08-19T02:23:50;11.30;68.34
72202;SHT30;60105;54.956;73.412;2022-08-19T02:26:16;11.36;68.49
72202;SHT30;60105;54.956;73.412;2022-08-19T02:28:43;11.41;67.48
72202;SHT30;60105;54.956;73.412;2022-08-19T02:31:18;11.49;67.10
72202;SHT30;60105;54.956;73.412;2022-08-19T02:33:45;11.51;66.90
72202;SHT30;60105;54.956;73.412;2022-08-19T02:36:13;11.54;66.69
72202;SHT30;60105;54.956;73.412;2022-08-19T02:38:40;11.50;66.48
72202;SHT30;60105;54.956;73.412;2022-08-19T02:41:12;11.54;66.32
72202;SHT30;60105;54.956;73.412;2022-08-19T02:43:38;11.53;66.56
72202;SHT30;60105;54.956;73.412;2022-08-19T02:46:24;11.53;66.09
72202;SHT30;60105;54.956;73.412;2022-08-19T02:48:55;11.56;66.58
72202;SHT30;60105;54.956;73.412;2022-08-19T02:51:26;11.64;66.39
72202;SHT30;60105;54.956;73.412;2022-08-19T02:53:53;11.71;65.71
72202;SHT30;60105;54.956;73.412;2022-08-19T02:56:20;11.61;66.23
72202;SHT30;60105;54.956;73.412;2022-08-19T02:58:52;11.67;65.64
72202;SHT30;60105;54.956;73.412;2022-08-19T03:01:30;11.70;65.76
72202;SHT30;60105;54.956;73.412;2022-08-19T03:04:00;11.70;65.59
72202;SHT30;60105;54.956;73.412;2022-08-19T03:06:27;11.77;65.89
72202;SHT30;60105;54.956;73.412;2022-08-19T03:08:54;11.82;65.45
72202;SHT30;60105;54.956;73.412;2022-08-19T03:11:24;11.92;64.79
72202;SHT30;60105;54.956;73.412;2022-08-19T03:13:51;11.82;64.99
72202;SHT30;60105;54.956;73.412;2022-08-19T03:16:18;11.87;65.13
72202;SHT30;60105;54.956;73.412;2022-08-19T03:18:45;11.92;64.98
72202;SHT30;60105;54.956;73.412;2022-08-19T03:21:19;11.97;64.46
72202;SHT30;60105;54.956;73.412;2022-08-19T03:23:46;11.95;65.24
72202;SHT30;60105;54.956;73.412;2022-08-19T03:26:12;12.02;65.07
72202;SHT30;60105;54.956;73.412;2022-08-19T03:28:43;12.05;64.62
72202;SHT30;60105;54.956;73.412;2022-08-19T03:31:13;12.11;64.95
72202;SHT30;60105;54.956;73.412;2022-08-19T03:33:40;12.17;64.17
72202;SHT30;60105;54.956;73.412;2022-08-19T03:36:20;12.11;64.37
72202;SHT30;60105;54.956;73.412;2022-08-19T03:38:52;12.11;64.10
72202;SHT30;60105;54.956;73.412;2022-08-19T03:41:30;12.09;64.22
72202;SHT30;60105;54.956;73.412;2022-08-19T03:43:58;12.12;64.46
72202;SHT30;60105;54.956;73.412;2022-08-19T03:46:30;12.15;64.03
72202;SHT30;60105;54.956;73.412;2022-08-19T03:48:59;12.18;63.65
72202;SHT30;60105;54.956;73.412;2022-08-19T03:51:32;12.18;63.74
72202;SHT30;60105;54.956;73.412;2022-08-19T03:54:01;12.32;63.64
72202;SHT30;60105;54.956;73.412;2022-08-19T03:56:29;12.32;63.30
72202;SHT30;60105;54.956;73.412;2022-08-19T03:58:56;12.30;63.25
72202;SHT30;60105;54.956;73.412;2022-08-19T04:01:26;12.28;63.85
72202;SHT30;60105;54.956;73.412;2022-08-19T04:03:53;12.38;63.14
72202;SHT30;60105;54.956;73.412;2022-08-19T04:06:23;12.43;63.95
72202;SHT30;60105;54.956;73.412;2022-08-19T04:08:51;12.40;63.59
72202;SHT30;60105;54.956;73.412;2022-08-19T04:11:22;12.52;63.18
72202;SHT30;60105;54.956;73.412;2022-08-19T04:13:51;12.59;63.26
72202;SHT30;60105;54.956;73.412;2022-08-19T04:16:18;12.64;62.95
72202;SHT30;60105;54.956;73.412;2022-08-19T04:18:47;12.63;63.16
72202;SHT30;60105;54.956;73.412;2022-08-19T04:21:19;12.69;63.09
72202;SHT30;60105;54.956;73.412;2022-08-19T04:23:46;12.63;63.55
72202;SHT30;60105;54.956;73.412;2022-08-19T04:26:22;12.69;63.71
72202;SHT30;60105;54.956;73.412;2022-08-19T04:28:49;12.76;63.07
72202;SHT30;60105;54.956;73.412;2022-08-19T04:31:25;12.84;62.61
72202;SHT30;60105;54.956;73.412;2022-08-19T04:34:02;12.88;62.80
72202;SHT30;60105;54.956;73.412;2022-08-19T04:36:37;12.90;63.14
72202;SHT30;60105;54.956;73.412;2022-08-19T04:39:09;12.94;62.66
72202;SHT30;60105;54.956;73.412;2022-08-19T04:41:37;12.97;62.24
72202;SHT30;60105;54.956;73.412;2022-08-19T04:44:21;12.94;61.67
72202;SHT30;60105;54.956;73.412;2022-08-19T04:46:49;12.93;61.72
72202;SHT30;60105;54.956;73.412;2022-08-19T04:49:18;12.98;62.23
72202;SHT30;60105;54.956;73.412;2022-08-19T04:51:46;13.01;62.55
72202;SHT30;60105;54.956;73.412;2022-08-19T04:54:14;13.03;62.84
72202;SHT30;60105;54.956;73.412;2022-08-19T04:56:44;13.11;61.39
72202;SHT30;60105;54.956;73.412;2022-08-19T04:59:11;13.17;60.54
72202;SHT30;60105;54.956;73.412;2022-08-19T05:01:37;13.27;60.60
72202;SHT30;60105;54.956;73.412;2022-08-19T05:04:05;13.49;60.16
72202;SHT30;60105;54.956;73.412;2022-08-19T05:06:33;13.73;59.57
72202;SHT30;60105;54.956;73.412;2022-08-19T05:09:09;13.83;59.07
72202;SHT30;60105;54.956;73.412;2022-08-19T05:11:46;13.89;58.73
72202;SHT30;60105;54.956;73.412;2022-08-19T05:14:12;13.95;58.03
72202;SHT30;60105;54.956;73.412;2022-08-19T05:16:43;13.87;57.85
72202;SHT30;60105;54.956;73.412;2022-08-19T05:19:09;13.89;57.80
72202;SHT30;60105;54.956;73.412;2022-08-19T05:21:54;13.82;58.14
72202;SHT30;60105;54.956;73.412;2022-08-19T05:24:39;13.80;58.48
72202;SHT30;60105;54.956;73.412;2022-08-19T05:27:05;13.85;58.26
72202;SHT30;60105;54.956;73.412;2022-08-19T05:29:33;14.02;58.34
72202;SHT30;60105;54.956;73.412;2022-08-19T05:32:01;14.16;58.42
72202;SHT30;60105;54.956;73.412;2022-08-19T05:34:28;14.23;57.16
72202;SHT30;60105;54.956;73.412;2022-08-19T05:36:56;14.45;57.31
72202;SHT30;60105;54.956;73.412;2022-08-19T05:39:28;14.64;56.31
72202;SHT30;60105;54.956;73.412;2022-08-19T05:41:58;14.69;55.63
72202;SHT30;60105;54.956;73.412;2022-08-19T05:44:27;14.60;56.22
72202;SHT30;60105;54.956;73.412;2022-08-19T05:47:07;14.67;56.33
72202;SHT30;60105;54.956;73.412;2022-08-19T05:49:35;14.62;56.68
72202;SHT30;60105;54.956;73.412;2022-08-19T05:52:04;14.60;56.09
72202;SHT30;60105;54.956;73.412;2022-08-19T05:54:31;14.61;56.10
72202;SHT30;60105;54.956;73.412;2022-08-19T05:56:57;14.64;56.15
72202;SHT30;60105;54.956;73.412;2022-08-19T05:59:23;14.62;56.35
72202;SHT30;60105;54.956;73.412;2022-08-19T06:01:53;14.74;56.81
72202;SHT30;60105;54.956;73.412;2022-08-19T06:04:23;14.62;57.26
72202;SHT30;60105;54.956;73.412;2022-08-19T06:07:00;14.64;56.58
72202;SHT30;60105;54.956;73.412;2022-08-19T06:09:27;14.65;56.44
72202;SHT30;60105;54.956;73.412;2022-08-19T06:11:56;14.65;56.89
72202;SHT30;60105;54.956;73.412;2022-08-19T06:14:31;14.69;56.31
72202;SHT30;60105;54.956;73.412;2022-08-19T06:16:57;14.71;56.57
72202;SHT30;60105;54.956;73.412;2022-08-19T06:19:26;14.75;56.50
72202;SHT30;60105;54.956;73.412;2022-08-19T06:21:54;14.81;56.63
72202;SHT30;60105;54.956;73.412;2022-08-19T06:24:27;14.81;56.70
72202;SHT30;60105;54.956;73.412;2022-08-19T06:26:55;14.76;56.62
72202;SHT30;60105;54.956;73.412;2022-08-19T06:29:24;14.89;56.68
72202;SHT30;60105;54.956;73.412;2022-08-19T06:31:57;15.00;56.56
72202;SHT30;60105;54.956;73.412;2022-08-19T06:34:24;15.02;56.60
72202;SHT30;60105;54.956;73.412;2022-08-19T06:37:01;15.09;56.21
72202;SHT30;60105;54.956;73.412;2022-08-19T06:39:32;15.18;56.42
72202;SHT30;60105;54.956;73.412;2022-08-19T06:42:05;15.39;55.60
72202;SHT30;60105;54.956;73.412;2022-08-19T06:44:35;15.58;55.22
72202;SHT30;60105;54.956;73.412;2022-08-19T06:47:07;15.61;54.71
72202;SHT30;60105;54.956;73.412;2022-08-19T06:49:35;15.64;54.79
72202;SHT30;60105;54.956;73.412;2022-08-19T06:52:02;15.57;54.96
72202;SHT30;60105;54.956;73.412;2022-08-19T06:54:29;15.40;55.04
72202;SHT30;60105;54.956;73.412;2022-08-19T06:57:00;15.33;56.11
72202;SHT30;60105;54.956;73.412;2022-08-19T06:59:30;15.37;55.28
72202;SHT30;60105;54.956;73.412;2022-08-19T07:02:01;15.23;55.72
72202;SHT30;60105;54.956;73.412;2022-08-19T07:04:31;15.16;56.07
72202;SHT30;60105;54.956;73.412;2022-08-19T07:07:01;15.10;56.59
72202;SHT30;60105;54.956;73.412;2022-08-19T07:09:28;15.03;57.36
72202;SHT30;60105;54.956;73.412;2022-08-19T07:11:55;14.89;57.92
72202;SHT30;60105;54.956;73.412;2022-08-19T07:14:25;14.79;58.30
72202;SHT30;60105;54.956;73.412;2022-08-19T07:16:54;14.72;58.74
72202;SHT30;60105;54.956;73.412;2022-08-19T07:19:22;14.71;58.82
72202;SHT30;60105;54.956;73.412;2022-08-19T07:21:50;14.65;58.99
72202;SHT30;60105;54.956;73.412;2022-08-19T07:24:22;14.64;59.70
72202;SHT30;60105;54.956;73.412;2022-08-19T07:26:52;14.62;59.29
72202;SHT30;60105;54.956;73.412;2022-08-19T07:29:20;14.62;59.86
72202;SHT30;60105;54.956;73.412;2022-08-19T07:31:50;14.46;61.73
72202;SHT30;60105;54.956;73.412;2022-08-19T07:34:17;14.23;63.30
72202;SHT30;60105;54.956;73.412;2022-08-19T07:36:43;14.18;63.74
72202;SHT30;60105;54.956;73.412;2022-08-19T07:39:23;14.04;64.23
72202;SHT30;60105;54.956;73.412;2022-08-19T07:41:49;14.04;64.29
72202;SHT30;60105;54.956;73.412;2022-08-19T07:44:19;13.97;64.74
72202;SHT30;60105;54.956;73.412;2022-08-19T07:46:49;13.96;65.07
72202;SHT30;60105;54.956;73.412;2022-08-19T07:49:19;14.07;64.01
72202;SHT30;60105;54.956;73.412;2022-08-19T07:52:04;14.17;63.80
72202;SHT30;60105;54.956;73.412;2022-08-19T07:54:33;14.25;63.15
72202;SHT30;60105;54.956;73.412;2022-08-19T07:57:03;14.33;63.17
72202;SHT30;60105;54.956;73.412;2022-08-19T07:59:29;14.35;62.48
72202;SHT30;60105;54.956;73.412;2022-08-19T08:01:57;14.51;62.19
72202;SHT30;60105;54.956;73.412;2022-08-19T08:04:25;14.55;61.94
72202;SHT30;60105;54.956;73.412;2022-08-19T08:07:10;14.62;60.81
72202;SHT30;60105;54.956;73.412;2022-08-19T08:09:54;14.74;60.42
72202;SHT30;60105;54.956;73.412;2022-08-19T08:12:33;14.78;59.45
72202;SHT30;60105;54.956;73.412;2022-08-19T08:15:05;14.76;59.72
72202;SHT30;60105;54.956;73.412;2022-08-19T08:17:33;14.78;59.94
72202;SHT30;60105;54.956;73.412;2022-08-19T08:20:00;14.75;59.93
72202;SHT30;60105;54.956;73.412;2022-08-19T08:22:26;14.68;59.78
72202;SHT30;60105;54.956;73.412;2022-08-19T08:25:18;14.64;60.07
72202;SHT30;60105;54.956;73.412;2022-08-19T08:27:45;14.72;60.24
72202;SHT30;60105;54.956;73.412;2022-08-19T08:30:21;14.78;60.22
72202;SHT30;60105;54.956;73.412;2022-08-19T08:32:48;14.69;60.41
72202;SHT30;60105;54.956;73.412;2022-08-19T08:35:17;14.72;60.72
72202;SHT30;60105;54.956;73.412;2022-08-19T08:37:48;14.65;60.40
72202;SHT30;60105;54.956;73.412;2022-08-19T08:40:28;14.58;60.93
72202;SHT30;60105;54.956;73.412;2022-08-19T08:45:49;14.62;61.52
72202;SHT30;60105;54.956;73.412;2022-08-19T08:51:11;14.79;61.46
72202;SHT30;60105;54.956;73.412;2022-08-19T08:53:38;14.92;61.55
72202;SHT30;60105;54.956;73.412;2022-08-19T08:56:06;15.02;61.31
72202;SHT30;60105;54.956;73.412;2022-08-19T09:01:23;14.98;61.66
72202;SHT30;60105;54.956;73.412;2022-08-19T09:03:50;15.00;61.30
72202;SHT30;60105;54.956;73.412;2022-08-19T09:09:05;14.99;61.65
72202;SHT30;60105;54.956;73.412;2022-08-19T09:17:10;14.88;62.23
72202;SHT30;60105;54.956;73.412;2022-08-19T09:19:50;14.91;62.82
72202;SHT30;60105;54.956;73.412;2022-08-19T09:22:16;14.82;62.54
72202;SHT30;60105;54.956;73.412;2022-08-19T09:24:51;14.76;63.14
72202;SHT30;60105;54.956;73.412;2022-08-19T09:27:24;14.79;63.10
72202;SHT30;60105;54.956;73.412;2022-08-19T09:29:56;14.71;63.49
72202;SHT30;60105;54.956;73.412;2022-08-19T09:32:22;14.71;63.82
72202;SHT30;60105;54.956;73.412;2022-08-19T09:34:59;14.82;63.90
72202;SHT30;60105;54.956;73.412;2022-08-19T09:37:37;14.83;64.19
72202;SHT30;60105;54.956;73.412;2022-08-19T09:40:12;14.81;64.55
72202;SHT30;60105;54.956;73.412;2022-08-19T09:42:38;14.83;64.63
72202;SHT30;60105;54.956;73.412;2022-08-19T09:45:05;14.79;64.76
72202;SHT30;60105;54.956;73.412;2022-08-19T09:47:32;14.75;65.25
72202;SHT30;60105;54.956;73.412;2022-08-19T09:50:06;14.72;65.56
72202;SHT30;60105;54.956;73.412;2022-08-19T09:52:33;14.75;65.13
72202;SHT30;60105;54.956;73.412;2022-08-19T09:55:06;14.75;65.06
72202;SHT30;60105;54.956;73.412;2022-08-19T09:57:33;14.75;65.32
72202;SHT30;60105;54.956;73.412;2022-08-19T10:00:02;14.72;65.80
72202;SHT30;60105;54.956;73.412;2022-08-19T10:02:34;14.65;66.23
72202;SHT30;60105;54.956;73.412;2022-08-19T10:05:01;14.65;66.31
72202;SHT30;60105;54.956;73.412;2022-08-19T10:07:46;14.64;66.90
72202;SHT30;60105;54.956;73.412;2022-08-19T10:10:13;14.60;67.62
72202;SHT30;60105;54.956;73.412;2022-08-19T10:12:41;14.55;68.69
72202;SHT30;60105;54.956;73.412;2022-08-19T10:15:08;14.45;70.03
72202;SHT30;60105;54.956;73.412;2022-08-19T10:17:35;14.42;71.41
72202;SHT30;60105;54.956;73.412;2022-08-19T10:20:01;14.28;72.80
72202;SHT30;60105;54.956;73.412;2022-08-19T10:22:30;14.28;73.87
72202;SHT30;60105;54.956;73.412;2022-08-19T10:24:57;14.18;74.92
72202;SHT30;60105;54.956;73.412;2022-08-19T10:27:23;14.07;76.25
72202;SHT30;60105;54.956;73.412;2022-08-19T10:29:55;13.99;77.38
72202;SHT30;60105;54.956;73.412;2022-08-19T10:32:22;13.82;78.12
72202;SHT30;60105;54.956;73.412;2022-08-19T10:34:49;13.67;78.80
72202;SHT30;60105;54.956;73.412;2022-08-19T10:37:17;13.63;79.44
72202;SHT30;60105;54.956;73.412;2022-08-19T10:39:45;13.54;79.57
72202;SHT30;60105;54.956;73.412;2022-08-19T10:42:14;13.41;80.90
72202;SHT30;60105;54.956;73.412;2022-08-19T10:44:42;13.35;80.80
72202;SHT30;60105;54.956;73.412;2022-08-19T10:47:09;13.28;81.01
72202;SHT30;60105;54.956;73.412;2022-08-19T10:49:35;13.27;80.66
72202;SHT30;60105;54.956;73.412;2022-08-19T10:52:21;13.24;81.49
72202;SHT30;60105;54.956;73.412;2022-08-19T10:55:06;13.31;80.91
72202;SHT30;60105;54.956;73.412;2022-08-19T10:57:52;13.22;81.45
72202;SHT30;60105;54.956;73.412;2022-08-19T11:00:20;13.29;81.22
72202;SHT30;60105;54.956;73.412;2022-08-19T11:02:46;13.35;80.16
72202;SHT30;60105;54.956;73.412;2022-08-19T11:05:13;13.36;80.39
72202;SHT30;60105;54.956;73.412;2022-08-19T11:07:41;13.38;79.82
72202;SHT30;60105;54.956;73.412;2022-08-19T11:10:09;13.49;79.34
72202;SHT30;60105;54.956;73.412;2022-08-19T11:12:40;13.52;79.37
72202;SHT30;60105;54.956;73.412;2022-08-19T11:15:09;13.52;79.44
72202;SHT30;60105;54.956;73.412;2022-08-19T11:17:39;13.56;78.92
72202;SHT30;60105;54.956;73.412;2022-08-19T11:20:11;13.67;78.67
72202;SHT30;60105;54.956;73.412;2022-08-19T11:22:38;13.67;79.46
72202;SHT30;60105;54.956;73.412;2022-08-19T11:25:15;13.75;78.50
72202;SHT30;60105;54.956;73.412;2022-08-19T11:27:42;13.73;78.92
72202;SHT30;60105;54.956;73.412;2022-08-19T11:30:11;13.76;78.08
72202;SHT30;60105;54.956;73.412;2022-08-19T11:32:37;13.82;77.72
72202;SHT30;60105;54.956;73.412;2022-08-19T11:35:04;13.83;77.69
72202;SHT30;60105;54.956;73.412;2022-08-19T11:37:30;13.86;76.96
72202;SHT30;60105;54.956;73.412;2022-08-19T11:39:57;13.87;77.07
72202;SHT30;60105;54.956;73.412;2022-08-19T11:42:24;13.93;76.81
72202;SHT30;60105;54.956;73.412;2022-08-19T11:45:18;13.89;78.04
72202;SHT30;60105;54.956;73.412;2022-08-19T11:47:45;13.86;77.63
72202;SHT30;60105;54.956;73.412;2022-08-19T11:50:13;13.95;77.38
72202;SHT30;60105;54.956;73.412;2022-08-19T11:52:45;13.87;77.87
72202;SHT30;60105;54.956;73.412;2022-08-19T11:55:13;13.93;77.89
72202;SHT30;60105;54.956;73.412;2022-08-19T11:57:39;13.93;77.18
72202;SHT30;60105;54.956;73.412;2022-08-19T12:00:07;13.87;77.47
72202;SHT30;60105;54.956;73.412;2022-08-19T12:02:34;13.91;77.39
72202;SHT30;60105;54.956;73.412;2022-08-19T12:05:00;13.89;77.41
72202;SHT30;60105;54.956;73.412;2022-08-19T12:07:34;13.87;77.29
72202;SHT30;60105;54.956;73.412;2022-08-19T12:10:00;13.85;77.82
72202;SHT30;60105;54.956;73.412;2022-08-19T12:12:27;13.93;78.48
72202;SHT30;60105;54.956;73.412;2022-08-19T12:14:53;13.90;77.88
72202;SHT30;60105;54.956;73.412;2022-08-19T12:17:32;13.87;78.12
72202;SHT30;60105;54.956;73.412;2022-08-19T12:19:58;13.80;78.36
72202;SHT30;60105;54.956;73.412;2022-08-19T12:22:24;13.79;78.10
72202;SHT30;60105;54.956;73.412;2022-08-19T12:24:50;13.83;78.21
72202;SHT30;60105;54.956;73.412;2022-08-19T12:27:23;13.77;78.69
72202;SHT30;60105;54.956;73.412;2022-08-19T12:29:49;13.79;79.53
72202;SHT30;60105;54.956;73.412;2022-08-19T12:32:16;13.75;79.86
72202;SHT30;60105;54.956;73.412;2022-08-19T12:34:42;13.79;80.04
72202;SHT30;60105;54.956;73.412;2022-08-19T12:37:09;13.76;80.58
72202;SHT30;60105;54.956;73.412;2022-08-19T12:39:37;13.77;80.47
72202;SHT30;60105;54.956;73.412;2022-08-19T12:42:05;13.85;80.05
72202;SHT30;60105;54.956;73.412;2022-08-19T12:44:31;13.95;79.84
72202;SHT30;60105;54.956;73.412;2022-08-19T12:46:58;14.03;78.89
72202;SHT30;60105;54.956;73.412;2022-08-19T12:49:27;14.06;79.06
72202;SHT30;60105;54.956;73.412;2022-08-19T12:52:05;14.02;78.15
72202;SHT30;60105;54.956;73.412;2022-08-19T12:54:31;13.96;78.51
72202;SHT30;60105;54.956;73.412;2022-08-19T12:56:57;13.90;79.36
72202;SHT30;60105;54.956;73.412;2022-08-19T12:59:24;13.86;79.94
72202;SHT30;60105;54.956;73.412;2022-08-19T13:02:01;13.82;80.66
72202;SHT30;60105;54.956;73.412;2022-08-19T13:04:27;13.70;81.91
72202;SHT30;60105;54.956;73.412;2022-08-19T13:06:53;13.63;83.30
72202;SHT30;60105;54.956;73.412;2022-08-19T13:09:19;13.61;83.39
72202;SHT30;60105;54.956;73.412;2022-08-19T13:11:45;13.61;83.38
72202;SHT30;60105;54.956;73.412;2022-08-19T13:14:12;13.55;83.54
72202;SHT30;60105;54.956;73.412;2022-08-19T13:16:38;13.44;84.38
72202;SHT30;60105;54.956;73.412;2022-08-19T13:19:04;13.45;84.10
72202;SHT30;60105;54.956;73.412;2022-08-19T13:21:31;13.48;83.70
72202;SHT30;60105;54.956;73.412;2022-08-19T13:23:57;13.45;83.94
72202;SHT30;60105;54.956;73.412;2022-08-19T13:26:23;13.49;84.15
72202;SHT30;60105;54.956;73.412;2022-08-19T13:28:55;13.46;84.21
72202;SHT30;60105;54.956;73.412;2022-08-19T13:31:41;13.49;84.15
72202;SHT30;60105;54.956;73.412;2022-08-19T13:34:30;13.51;83.14
72202;SHT30;60105;54.956;73.412;2022-08-19T13:36:58;13.51;82.53
72202;SHT30;60105;54.956;73.412;2022-08-19T13:39:25;13.52;82.16
72202;SHT30;60105;54.956;73.412;2022-08-19T13:41:59;13.52;82.03
72202;SHT30;60105;54.956;73.412;2022-08-19T13:44:27;13.49;82.32
72202;SHT30;60105;54.956;73.412;2022-08-19T13:47:00;13.52;82.50
72202;SHT30;60105;54.956;73.412;2022-08-19T13:49:28;13.51;82.83
72202;SHT30;60105;54.956;73.412;2022-08-19T13:51:57;13.44;82.77
72202;SHT30;60105;54.956;73.412;2022-08-19T13:54:23;13.42;83.02
72202;SHT30;60105;54.956;73.412;2022-08-19T13:56:50;13.41;83.04
72202;SHT30;60105;54.956;73.412;2022-08-19T13:59:16;13.41;83.41
72202;SHT30;60105;54.956;73.412;2022-08-19T14:01:43;13.39;83.21
72202;SHT30;60105;54.956;73.412;2022-08-19T14:04:09;13.38;83.22
72202;SHT30;60105;54.956;73.412;2022-08-19T14:06:35;13.36;83.51
72202;SHT30;60105;54.956;73.412;2022-08-19T14:09:02;13.32;83.95
72202;SHT30;60105;54.956;73.412;2022-08-19T14:11:29;13.29;84.21
72202;SHT30;60105;54.956;73.412;2022-08-19T14:13:55;13.27;84.55
72202;SHT30;60105;54.956;73.412;2022-08-19T14:16:21;13.22;84.77
72202;SHT30;60105;54.956;73.412;2022-08-19T14:18:47;13.25;85.21
72202;SHT30;60105;54.956;73.412;2022-08-19T14:21:20;13.34;84.77
72202;SHT30;60105;54.956;73.412;2022-08-19T14:23:47;13.34;84.82
72202;SHT30;60105;54.956;73.412;2022-08-19T14:26:15;13.35;84.99
72202;SHT30;60105;54.956;73.412;2022-08-19T14:28:42;13.29;84.92
72202;SHT30;60105;54.956;73.412;2022-08-19T14:31:11;13.28;85.33
72202;SHT30;60105;54.956;73.412;2022-08-19T14:33:40;13.32;84.87
72202;SHT30;60105;54.956;73.412;2022-08-19T14:36:06;13.41;84.48
72202;SHT30;60105;54.956;73.412;2022-08-19T14:38:43;13.41;84.69
72202;SHT30;60105;54.956;73.412;2022-08-19T14:41:19;13.35;84.88
72202;SHT30;60105;54.956;73.412;2022-08-19T14:43:47;13.35;84.92
72202;SHT30;60105;54.956;73.412;2022-08-19T14:46:16;13.39;84.62
72202;SHT30;60105;54.956;73.412;2022-08-19T14:48:43;13.42;84.87
72202;SHT30;60105;54.956;73.412;2022-08-19T14:51:10;13.39;85.01
72202;SHT30;60105;54.956;73.412;2022-08-19T14:53:36;13.35;85.23
72202;SHT30;60105;54.956;73.412;2022-08-19T14:56:08;13.39;85.09
72202;SHT30;60105;54.956;73.412;2022-08-19T14:58:34;13.39;84.86
72202;SHT30;60105;54.956;73.412;2022-08-19T15:01:01;13.35;85.13
72202;SHT30;60105;54.956;73.412;2022-08-19T15:03:28;13.31;85.07
72202;SHT30;60105;54.956;73.412;2022-08-19T15:05:54;13.25;85.34
72202;SHT30;60105;54.956;73.412;2022-08-19T15:08:22;13.27;85.19
72202;SHT30;60105;54.956;73.412;2022-08-19T15:10:51;13.25;85.29
72202;SHT30;60105;54.956;73.412;2022-08-19T15:13:21;13.24;85.43
72202;SHT30;60105;54.956;73.412;2022-08-19T15:15:47;13.27;85.55
72202;SHT30;60105;54.956;73.412;2022-08-19T15:18:14;13.21;86.16
72202;SHT30;60105;54.956;73.412;2022-08-19T15:20:40;13.25;85.91
72202;SHT30;60105;54.956;73.412;2022-08-19T15:23:06;13.25;85.36
72202;SHT30;60105;54.956;73.412;2022-08-19T15:25:32;13.28;85.26
72202;SHT30;60105;54.956;73.412;2022-08-19T15:28:00;13.21;85.66
72202;SHT30;60105;54.956;73.412;2022-08-19T15:30:27;13.22;85.65
72202;SHT30;60105;54.956;73.412;2022-08-19T15:32:55;13.19;85.38
72202;SHT30;60105;54.956;73.412;2022-08-19T15:35:22;13.22;85.59
72202;SHT30;60105;54.956;73.412;2022-08-19T15:37:50;13.28;84.93
72202;SHT30;60105;54.956;73.412;2022-08-19T15:40:23;13.29;84.79
72202;SHT30;60105;54.956;73.412;2022-08-19T15:42:55;13.29;84.81
72202;SHT30;60105;54.956;73.412;2022-08-19T15:45:21;13.28;84.87
72202;SHT30;60105;54.956;73.412;2022-08-19T15:47:48;13.27;85.15